CheckWX is a tool to help pilots better visualize weather data.  It is not intended as a substitute for an official pre-flight weather briefing.

17:16:34 UTC

CYKJ TAF
Key Lake Airport
Key Lake, Canada
TAF AMD CYKJ 181345Z 1813/1824 33008KT P6SM SCT008 OVC030 TEMPO 1813/1824 5SM -RA BR BKN008 OVC030 RMK FCST BASED ON AUTO OBS. NXT FCST BY 181900Z

Aug-18@
13:00 UTC

Aug-18 @ 13:00 UTC

Aug-19@
00:00 UTC

Aug-19 @ 00:00 UTC

TAF AMD CYKJ 181345Z 1813/1824 33008KT P6SM SCT008 OVC030
Wind
  • 330° at 8 KTS
Cloud Levels
  • Scattered at 800' AGL
  • Overcast at 3,000' AGL

Aug-18@
13:00 UTC

Aug-18 @ 13:00 UTC

Aug-19@
00:00 UTC

Aug-19 @ 00:00 UTC

TEMPO 1813/1824 5SM -RA BR BKN008 OVC030 RMK FCST BASED ON AUTO OBS. NXT FCST BY 181900Z

Temporary

Temporary Changes expected for less than half the time period

Conditions
Light Rain, Mist
Cloud Levels
  • Broken at 800' AGL
  • Overcast at 3,000' AGL